K0CPM-2 Weather Reports


Display with metric or nautical units.
time (UTC)temp
F
wind
direction
speed
MPH
gust
MPH
rain 1hr
in
rain 24hr
in
rain mn
in
humidity
%
barometer
mb
20220118143141 51 214 0.0 1.0 0.00 0.00 0.00 96 1019.0
20220118141609 50 214 0.0 0.0 0.00 0.00 0.00 95 1019.0
20220118140204 49 215 0.0 0.0 0.00 0.00 0.00 95 1019.0
20220118134659 48 125 0.0 0.0 0.00 0.00 0.00 95 1019.1
20220118133144 47 125 0.0 0.0 0.00 0.00 0.00 95 1019.1
20220118131635 46 125 0.0 0.0 0.00 0.00 0.00 95 1019.2
20220118130220 46 125 0.0 0.0 0.00 0.00 0.00 95 1018.9
20220118124708 45 126 0.0 0.0 0.00 0.00 0.00 95 1018.8
20220118123059 45 125 0.0 0.0 0.00 0.00 0.00 95 1018.6
20220118120039 44 125 0.0 0.0 0.00 0.00 0.00 95 1018.7
20220118114559 44 126 0.0 0.0 0.00 0.00 0.00 95 1018.4
20220118113135 44 125 0.0 0.0 0.00 0.00 0.00 95 1018.4
20220118111606 44 125 0.0 0.0 0.00 0.00 0.00 95 1018.2
20220118110050 43 125 0.0 0.0 0.00 0.00 0.00 95 1018.3
20220118104634 43 125 0.0 0.0 0.00 0.00 0.00 95 1018.0
20220118103033 43 125 0.0 0.0 0.00 0.00 0.00 95 1018.3
20220118101616 43 125 0.0 0.0 0.00 0.00 0.00 95 1018.4
20220118100131 43 125 0.0 0.0 0.00 0.00 0.00 95 1018.5
20220118094538 42 125 0.0 0.0 0.00 0.00 0.00 95 1018.7
20220118093115 42 126 0.0 0.0 0.00 0.00 0.00 95 1018.7
20220118091538 42 125 0.0 0.0 0.00 0.00 0.00 95 1018.9
20220118090026 42 126 0.0 0.0 0.00 0.00 0.00 94 1019.0
20220118084543 42 125 0.0 0.0 0.00 0.00 0.00 94 1019.1
20220118083029 42 126 0.0 0.0 0.00 0.00 0.00 94 1019.1
20220118081527 42 125 0.0 0.0 0.00 0.00 0.00 94 1019.2
20220118080017 42 126 0.0 0.0 0.00 0.00 0.00 93 1019.4
20220118074528 42 125 0.0 0.0 0.00 0.00 0.00 93 1019.4
20220118073017 43 125 0.0 0.0 0.00 0.00 0.00 92 1019.3
20220118071510 43 125 0.0 0.0 0.00 0.00 0.00 92 1019.4
20220118070008 44 126 0.0 0.0 0.00 0.00 0.00 90 1019.5
20220118064506 44 125 0.0 0.0 0.00 0.00 0.00 90 1019.4
20220118063023 44 125 0.0 0.0 0.00 0.00 0.00 90 1019.5
20220118061512 44 125 0.0 0.0 0.00 0.00 0.00 89 1019.6
20220118060000 44 125 0.0 0.0 0.00 0.00 0.00 89 1019.8
20220118054609 44 125 0.0 0.0 0.00 0.00 0.00 88 1020.0
20220118053150 45 125 0.0 0.0 0.00 0.00 0.00 87 1020.2
20220118051716 45 125 0.0 0.0 0.00 0.00 0.00 86 1020.4
20220118050223 45 125 0.0 0.0 0.00 0.00 0.00 84 1020.5
20220118044638 46 125 0.0 0.0 0.00 0.00 0.00 82 1020.6
20220118043242 47 125 0.0 0.0 0.00 0.00 0.00 81 1020.5
20220118041638 47 125 0.0 0.0 0.00 0.00 0.00 80 1020.6
20220118040143 48 125 0.0 0.0 0.00 0.00 0.00 78 1020.6
20220118034654 48 125 0.0 0.0 0.00 0.00 0.00 76 1020.6
20220118033248 50 125 0.0 1.0 0.00 0.00 0.00 74 1020.5
20220118031606 50 153 0.0 1.0 0.00 0.00 0.00 72 1020.7
20220118030209 51 126 0.0 0.0 0.00 0.00 0.00 71 1020.6
20220118024640 51 152 0.0 1.0 0.00 0.00 0.00 69 1020.6
20220118023114 52 269 0.0 1.0 0.00 0.00 0.00 67 1020.4
20220118021644 53 353 0.0 1.0 0.00 0.00 0.00 65 1020.4
20220118020112 53 165 0.0 1.0 0.00 0.00 0.00 63 1020.2
20220118014629 53 149 0.0 1.0 0.00 0.00 0.00 62 1020.1
20220118013134 53 138 0.0 2.0 0.00 0.00 0.00 60 1020.1
20220118011609 53 160 0.0 2.0 0.00 0.00 0.00 56 1020.0
20220118010105 51 141 0.0 0.0 0.00 0.00 0.00 55 1019.6
20220118004633 52 141 0.0 0.0 0.00 0.00 0.00 52 1019.5
20220118003203 54 141 0.0 0.0 0.00 0.00 0.00 50 1019.7
20220118001635 55 141 0.0 0.0 0.00 0.00 0.00 45 1019.5
20220118000117 57 141 0.0 0.0 0.00 0.00 0.00 43 1019.4
20220117234612 60 141 0.0 0.0 0.00 0.00 0.00 38 1019.3
20220117233119 62 141 0.0 1.0 0.00 0.00 0.00 35 1019.3
20220117231629 63 159 0.0 0.0 0.00 0.00 0.00 33 1019.7
20220117230055 64 126 0.0 2.0 0.00 0.00 0.00 31 1019.5
20220117224549 64 155 0.0 1.0 0.00 0.00 0.00 32 1019.5
20220117223117 65 155 0.0 2.0 0.00 0.00 0.00 32 1019.6
20220117221553 66 158 0.0 2.0 0.00 0.00 0.00 31 1019.7
20220117220049 66 159 0.0 3.0 0.00 0.00 0.00 30 1019.8
20220117214633 66 145 0.0 3.0 0.00 0.00 0.00 31 1019.8
20220117213114 66 123 0.0 3.0 0.00 0.00 0.00 31 1019.8
20220117211549 67 165 0.0 2.0 0.00 0.00 0.00 29 1019.8
20220117210057 67 183 0.0 3.0 0.00 0.00 0.00 29 1019.9
20220117204605 68 129 0.0 2.0 0.00 0.00 0.00 29 1020.0
20220117203043 68 142 1.0 4.0 0.00 0.00 0.00 29 1020.0
20220117201543 67 138 0.0 6.0 0.00 0.00 0.00 28 1020.0
20220117200059 68 153 0.0 3.0 0.00 0.00 0.00 30 1020.4
20220117194620 67 294 0.0 3.0 0.00 0.00 0.00 31 1020.5
20220117193052 67 144 0.0 3.0 0.00 0.00 0.00 31 1020.5
20220117191548 67 163 0.0 2.0 0.00 0.00 0.00 32 1021.4
20220117184527 66 134 0.0 4.0 0.00 0.00 0.00 33 1021.6
20220117183100 66 141 0.0 3.0 0.00 0.00 0.00 33 1022.1
20220117181541 65 158 1.0 4.0 0.00 0.00 0.00 33 1022.4
20220117180054 65 159 0.0 2.0 0.00 0.00 0.00 35 1022.6
20220117174522 65 190 0.0 2.0 0.00 0.00 0.00 36 1023.0
20220117173016 64 141 0.0 2.0 0.00 0.00 0.00 38 1023.2
20220117171547 63 181 0.0 3.0 0.00 0.00 0.00 38 1023.4
20220117170020 63 239 0.0 1.0 0.00 0.00 0.00 41 1023.6
20220117164506 62 219 0.0 2.0 0.00 0.00 0.00 45 1023.6
20220117163146 59 240 0.0 1.0 0.00 0.00 0.00 50 1023.6
20220117161732 54 222 0.0 1.0 0.00 0.00 0.00 56 1023.6
20220117160103 52 204 0.0 0.0 0.00 0.00 0.00 61 1023.6
20220117154615 50 197 0.0 1.0 0.00 0.00 0.00 64 1023.4
20220117153109 47 177 0.0 1.0 0.00 0.00 0.00 70 1023.3
20220117151620 45 233 0.0 1.0 0.00 0.00 0.00 79 1023.2
20220117150222 42 279 0.0 0.0 0.00 0.00 0.00 87 1023.2
20220117144609 40 280 0.0 0.0 0.00 0.00 0.00 91 1023.2